sensor_id;sensor_type;location;lat;lon;timestamp;P1;durP1;ratioP1;P2;durP2;ratioP2
15466;SDS011;7834;49.452;11.056;2024-01-15T00:02:05;50.50;;;25.80;;
15466;SDS011;7834;49.452;11.056;2024-01-15T00:04:31;52.30;;;26.30;;
15466;SDS011;7834;49.452;11.056;2024-01-15T00:06:56;52.85;;;26.30;;
15466;SDS011;7834;49.452;11.056;2024-01-15T00:09:22;48.33;;;24.97;;
15466;SDS011;7834;49.452;11.056;2024-01-15T00:11:47;48.63;;;24.93;;
15466;SDS011;7834;49.452;11.056;2024-01-15T00:14:13;49.70;;;24.67;;
15466;SDS011;7834;49.452;11.056;2024-01-15T00:16:40;49.05;;;24.63;;
15466;SDS011;7834;49.452;11.056;2024-01-15T00:19:06;51.63;;;25.83;;
15466;SDS011;7834;49.452;11.056;2024-01-15T00:21:31;49.30;;;25.30;;
15466;SDS011;7834;49.452;11.056;2024-01-15T00:23:57;50.55;;;25.67;;
15466;SDS011;7834;49.452;11.056;2024-01-15T00:26:22;48.63;;;24.83;;
15466;SDS011;7834;49.452;11.056;2024-01-15T00:28:48;51.10;;;25.40;;
15466;SDS011;7834;49.452;11.056;2024-01-15T00:31:15;47.50;;;25.10;;
15466;SDS011;7834;49.452;11.056;2024-01-15T00:33:41;50.67;;;25.57;;
15466;SDS011;7834;49.452;11.056;2024-01-15T00:36:07;51.43;;;25.67;;
15466;SDS011;7834;49.452;11.056;2024-01-15T00:38:32;47.17;;;24.43;;
15466;SDS011;7834;49.452;11.056;2024-01-15T00:40:58;52.78;;;26.58;;
15466;SDS011;7834;49.452;11.056;2024-01-15T00:43:24;49.10;;;24.60;;
15466;SDS011;7834;49.452;11.056;2024-01-15T00:45:49;50.50;;;25.70;;
15466;SDS011;7834;49.452;11.056;2024-01-15T00:48:15;49.92;;;25.60;;
15466;SDS011;7834;49.452;11.056;2024-01-15T00:50:40;50.07;;;25.33;;
15466;SDS011;7834;49.452;11.056;2024-01-15T00:53:06;52.90;;;26.45;;
15466;SDS011;7834;49.452;11.056;2024-01-15T00:55:31;47.55;;;25.42;;
15466;SDS011;7834;49.452;11.056;2024-01-15T00:57:57;49.63;;;25.40;;
15466;SDS011;7834;49.452;11.056;2024-01-15T01:00:22;49.97;;;26.13;;
15466;SDS011;7834;49.452;11.056;2024-01-15T01:02:48;49.53;;;25.23;;
15466;SDS011;7834;49.452;11.056;2024-01-15T01:05:14;48.03;;;24.87;;
15466;SDS011;7834;49.452;11.056;2024-01-15T01:07:39;51.57;;;26.03;;
15466;SDS011;7834;49.452;11.056;2024-01-15T01:10:05;49.88;;;25.30;;
15466;SDS011;7834;49.452;11.056;2024-01-15T01:12:31;49.33;;;25.58;;
15466;SDS011;7834;49.452;11.056;2024-01-15T01:14:56;52.03;;;25.77;;
15466;SDS011;7834;49.452;11.056;2024-01-15T01:17:22;50.67;;;26.00;;
15466;SDS011;7834;49.452;11.056;2024-01-15T01:19:49;49.75;;;25.92;;
15466;SDS011;7834;49.452;11.056;2024-01-15T01:22:14;50.75;;;26.35;;
15466;SDS011;7834;49.452;11.056;2024-01-15T01:24:40;55.17;;;27.63;;
15466;SDS011;7834;49.452;11.056;2024-01-15T01:27:06;48.20;;;25.73;;
15466;SDS011;7834;49.452;11.056;2024-01-15T01:29:31;56.42;;;27.77;;
15466;SDS011;7834;49.452;11.056;2024-01-15T01:31:57;53.07;;;26.73;;
15466;SDS011;7834;49.452;11.056;2024-01-15T01:34:22;56.83;;;27.57;;
15466;SDS011;7834;49.452;11.056;2024-01-15T01:36:48;49.80;;;25.77;;
15466;SDS011;7834;49.452;11.056;2024-01-15T01:39:13;49.77;;;25.20;;
15466;SDS011;7834;49.452;11.056;2024-01-15T01:41:39;48.73;;;25.40;;
15466;SDS011;7834;49.452;11.056;2024-01-15T01:44:05;52.28;;;26.88;;
15466;SDS011;7834;49.452;11.056;2024-01-15T01:46:31;49.42;;;24.83;;
15466;SDS011;7834;49.452;11.056;2024-01-15T01:48:56;50.75;;;26.13;;
15466;SDS011;7834;49.452;11.056;2024-01-15T01:51:22;51.13;;;25.40;;
15466;SDS011;7834;49.452;11.056;2024-01-15T01:53:49;48.58;;;24.80;;
15466;SDS011;7834;49.452;11.056;2024-01-15T01:56:15;49.40;;;25.42;;
15466;SDS011;7834;49.452;11.056;2024-01-15T01:58:42;47.10;;;24.10;;
15466;SDS011;7834;49.452;11.056;2024-01-15T02:01:08;45.37;;;23.57;;
15466;SDS011;7834;49.452;11.056;2024-01-15T02:03:33;48.47;;;24.40;;
15466;SDS011;7834;49.452;11.056;2024-01-15T02:05:59;49.80;;;24.30;;
15466;SDS011;7834;49.452;11.056;2024-01-15T02:08:28;46.40;;;24.75;;
15466;SDS011;7834;49.452;11.056;2024-01-15T02:10:57;45.53;;;23.45;;
15466;SDS011;7834;49.452;11.056;2024-01-15T02:13:22;46.27;;;23.97;;
15466;SDS011;7834;49.452;11.056;2024-01-15T02:15:48;46.60;;;23.40;;
15466;SDS011;7834;49.452;11.056;2024-01-15T02:18:13;44.75;;;22.73;;
15466;SDS011;7834;49.452;11.056;2024-01-15T02:20:39;42.40;;;22.43;;
15466;SDS011;7834;49.452;11.056;2024-01-15T02:23:14;41.40;;;21.77;;
15466;SDS011;7834;49.452;11.056;2024-01-15T02:25:41;42.42;;;21.45;;
15466;SDS011;7834;49.452;11.056;2024-01-15T02:28:10;41.05;;;21.58;;
15466;SDS011;7834;49.452;11.056;2024-01-15T02:30:36;45.17;;;23.80;;
15466;SDS011;7834;49.452;11.056;2024-01-15T02:33:03;40.17;;;21.48;;
15466;SDS011;7834;49.452;11.056;2024-01-15T02:35:28;41.25;;;21.58;;
15466;SDS011;7834;49.452;11.056;2024-01-15T02:37:54;39.97;;;20.67;;
15466;SDS011;7834;49.452;11.056;2024-01-15T02:40:20;41.67;;;20.80;;
15466;SDS011;7834;49.452;11.056;2024-01-15T02:42:45;37.60;;;20.50;;
15466;SDS011;7834;49.452;11.056;2024-01-15T02:45:11;37.83;;;20.23;;
15466;SDS011;7834;49.452;11.056;2024-01-15T02:47:36;38.60;;;20.33;;
15466;SDS011;7834;49.452;11.056;2024-01-15T02:50:02;40.05;;;20.50;;
15466;SDS011;7834;49.452;11.056;2024-01-15T02:52:28;37.27;;;20.23;;
15466;SDS011;7834;49.452;11.056;2024-01-15T02:54:53;38.77;;;20.30;;
15466;SDS011;7834;49.452;11.056;2024-01-15T02:57:25;38.67;;;19.80;;
15466;SDS011;7834;49.452;11.056;2024-01-15T02:59:50;39.47;;;20.17;;
15466;SDS011;7834;49.452;11.056;2024-01-15T03:02:16;36.33;;;19.70;;
15466;SDS011;7834;49.452;11.056;2024-01-15T03:04:45;38.60;;;19.60;;
15466;SDS011;7834;49.452;11.056;2024-01-15T03:07:10;37.70;;;19.65;;
15466;SDS011;7834;49.452;11.056;2024-01-15T03:09:36;39.17;;;19.27;;
15466;SDS011;7834;49.452;11.056;2024-01-15T03:12:07;37.70;;;19.45;;
15466;SDS011;7834;49.452;11.056;2024-01-15T03:14:32;35.80;;;18.75;;
15466;SDS011;7834;49.452;11.056;2024-01-15T03:16:58;36.00;;;18.97;;
15466;SDS011;7834;49.452;11.056;2024-01-15T03:19:23;34.97;;;17.87;;
15466;SDS011;7834;49.452;11.056;2024-01-15T03:21:49;32.03;;;17.95;;
15466;SDS011;7834;49.452;11.056;2024-01-15T03:24:14;33.50;;;17.50;;
15466;SDS011;7834;49.452;11.056;2024-01-15T03:26:40;34.70;;;18.07;;
15466;SDS011;7834;49.452;11.056;2024-01-15T03:29:06;34.13;;;17.02;;
15466;SDS011;7834;49.452;11.056;2024-01-15T03:31:32;32.50;;;17.23;;
15466;SDS011;7834;49.452;11.056;2024-01-15T03:34:00;33.75;;;17.23;;
15466;SDS011;7834;49.452;11.056;2024-01-15T03:36:26;30.93;;;16.67;;
15466;SDS011;7834;49.452;11.056;2024-01-15T03:38:51;30.30;;;16.37;;
15466;SDS011;7834;49.452;11.056;2024-01-15T03:41:17;31.67;;;16.35;;
15466;SDS011;7834;49.452;11.056;2024-01-15T03:43:51;31.08;;;16.85;;
15466;SDS011;7834;49.452;11.056;2024-01-15T03:46:17;29.73;;;16.60;;
15466;SDS011;7834;49.452;11.056;2024-01-15T03:48:42;29.80;;;16.30;;
15466;SDS011;7834;49.452;11.056;2024-01-15T03:51:08;31.80;;;16.10;;
15466;SDS011;7834;49.452;11.056;2024-01-15T03:53:33;32.80;;;16.80;;
15466;SDS011;7834;49.452;11.056;2024-01-15T03:55:59;30.13;;;16.70;;
15466;SDS011;7834;49.452;11.056;2024-01-15T03:58:27;29.92;;;16.55;;
15466;SDS011;7834;49.452;11.056;2024-01-15T04:00:53;29.97;;;16.30;;
15466;SDS011;7834;49.452;11.056;2024-01-15T04:03:18;29.90;;;15.68;;
15466;SDS011;7834;49.452;11.056;2024-01-15T04:05:44;29.55;;;16.25;;
15466;SDS011;7834;49.452;11.056;2024-01-15T04:08:10;30.23;;;16.17;;
15466;SDS011;7834;49.452;11.056;2024-01-15T04:10:35;28.52;;;15.50;;
15466;SDS011;7834;49.452;11.056;2024-01-15T04:13:01;28.83;;;15.97;;
15466;SDS011;7834;49.452;11.056;2024-01-15T04:15:30;29.20;;;15.80;;
15466;SDS011;7834;49.452;11.056;2024-01-15T04:17:56;28.42;;;15.85;;
15466;SDS011;7834;49.452;11.056;2024-01-15T04:20:22;30.52;;;15.70;;
15466;SDS011;7834;49.452;11.056;2024-01-15T04:22:47;29.20;;;15.77;;
15466;SDS011;7834;49.452;11.056;2024-01-15T04:25:13;28.90;;;15.27;;
15466;SDS011;7834;49.452;11.056;2024-01-15T04:27:38;28.00;;;14.83;;
15466;SDS011;7834;49.452;11.056;2024-01-15T04:30:04;27.95;;;15.55;;
15466;SDS011;7834;49.452;11.056;2024-01-15T04:32:30;27.48;;;15.32;;
15466;SDS011;7834;49.452;11.056;2024-01-15T04:34:55;26.57;;;15.10;;
15466;SDS011;7834;49.452;11.056;2024-01-15T04:37:21;28.45;;;16.13;;
15466;SDS011;7834;49.452;11.056;2024-01-15T04:39:47;28.98;;;16.25;;
15466;SDS011;7834;49.452;11.056;2024-01-15T04:42:12;36.63;;;19.87;;
15466;SDS011;7834;49.452;11.056;2024-01-15T04:44:38;39.90;;;21.10;;
15466;SDS011;7834;49.452;11.056;2024-01-15T04:47:03;32.47;;;17.27;;
15466;SDS011;7834;49.452;11.056;2024-01-15T04:49:29;28.53;;;16.17;;
15466;SDS011;7834;49.452;11.056;2024-01-15T04:51:55;28.00;;;15.85;;
15466;SDS011;7834;49.452;11.056;2024-01-15T04:54:20;30.17;;;16.15;;
15466;SDS011;7834;49.452;11.056;2024-01-15T04:56:46;29.03;;;16.30;;
15466;SDS011;7834;49.452;11.056;2024-01-15T04:59:12;29.50;;;16.00;;
15466;SDS011;7834;49.452;11.056;2024-01-15T05:01:38;31.53;;;17.07;;
15466;SDS011;7834;49.452;11.056;2024-01-15T05:04:03;31.13;;;16.40;;
15466;SDS011;7834;49.452;11.056;2024-01-15T05:06:29;30.70;;;16.40;;
15466;SDS011;7834;49.452;11.056;2024-01-15T05:08:55;28.07;;;15.60;;
15466;SDS011;7834;49.452;11.056;2024-01-15T05:11:20;29.63;;;16.00;;
15466;SDS011;7834;49.452;11.056;2024-01-15T05:13:46;28.45;;;15.93;;
15466;SDS011;7834;49.452;11.056;2024-01-15T05:16:11;27.77;;;15.60;;
15466;SDS011;7834;49.452;11.056;2024-01-15T05:18:37;31.40;;;16.37;;
15466;SDS011;7834;49.452;11.056;2024-01-15T05:21:03;29.38;;;15.63;;
15466;SDS011;7834;49.452;11.056;2024-01-15T05:23:28;28.40;;;15.75;;
15466;SDS011;7834;49.452;11.056;2024-01-15T05:25:57;27.43;;;16.00;;
15466;SDS011;7834;49.452;11.056;2024-01-15T05:28:23;27.75;;;16.00;;
15466;SDS011;7834;49.452;11.056;2024-01-15T05:30:48;29.80;;;15.57;;
15466;SDS011;7834;49.452;11.056;2024-01-15T05:33:16;27.77;;;15.20;;
15466;SDS011;7834;49.452;11.056;2024-01-15T05:35:44;28.30;;;15.40;;
15466;SDS011;7834;49.452;11.056;2024-01-15T05:38:10;26.75;;;14.75;;
15466;SDS011;7834;49.452;11.056;2024-01-15T05:40:35;26.93;;;15.07;;
15466;SDS011;7834;49.452;11.056;2024-01-15T05:43:01;26.77;;;14.32;;
15466;SDS011;7834;49.452;11.056;2024-01-15T05:45:27;28.17;;;15.27;;
15466;SDS011;7834;49.452;11.056;2024-01-15T05:47:52;26.37;;;15.27;;
15466;SDS011;7834;49.452;11.056;2024-01-15T05:50:18;27.27;;;15.47;;
15466;SDS011;7834;49.452;11.056;2024-01-15T05:52:43;26.65;;;14.80;;
15466;SDS011;7834;49.452;11.056;2024-01-15T05:55:09;26.23;;;14.90;;
15466;SDS011;7834;49.452;11.056;2024-01-15T05:57:35;26.27;;;14.57;;
15466;SDS011;7834;49.452;11.056;2024-01-15T06:00:01;26.10;;;13.85;;
15466;SDS011;7834;49.452;11.056;2024-01-15T06:02:31;26.23;;;14.90;;
15466;SDS011;7834;49.452;11.056;2024-01-15T06:05:00;24.33;;;13.90;;
15466;SDS011;7834;49.452;11.056;2024-01-15T06:07:27;24.38;;;13.80;;
15466;SDS011;7834;49.452;11.056;2024-01-15T06:09:53;24.27;;;13.80;;
15466;SDS011;7834;49.452;11.056;2024-01-15T06:12:19;22.23;;;13.60;;
15466;SDS011;7834;49.452;11.056;2024-01-15T06:14:44;23.93;;;13.57;;
15466;SDS011;7834;49.452;11.056;2024-01-15T06:17:10;23.40;;;13.85;;
15466;SDS011;7834;49.452;11.056;2024-01-15T06:19:36;25.45;;;13.70;;
15466;SDS011;7834;49.452;11.056;2024-01-15T06:22:01;24.97;;;13.90;;
15466;SDS011;7834;49.452;11.056;2024-01-15T06:24:27;23.85;;;14.02;;
15466;SDS011;7834;49.452;11.056;2024-01-15T06:26:52;24.20;;;14.00;;
15466;SDS011;7834;49.452;11.056;2024-01-15T06:29:18;25.00;;;13.63;;
15466;SDS011;7834;49.452;11.056;2024-01-15T06:31:44;25.85;;;13.90;;
15466;SDS011;7834;49.452;11.056;2024-01-15T06:34:09;26.00;;;14.63;;
15466;SDS011;7834;49.452;11.056;2024-01-15T06:36:37;26.42;;;14.45;;
15466;SDS011;7834;49.452;11.056;2024-01-15T06:39:06;26.55;;;15.32;;
15466;SDS011;7834;49.452;11.056;2024-01-15T06:41:31;27.67;;;15.50;;
15466;SDS011;7834;49.452;11.056;2024-01-15T06:43:57;28.47;;;15.83;;
15466;SDS011;7834;49.452;11.056;2024-01-15T06:46:22;28.87;;;15.93;;
15466;SDS011;7834;49.452;11.056;2024-01-15T06:48:48;31.60;;;16.25;;
15466;SDS011;7834;49.452;11.056;2024-01-15T06:51:14;29.30;;;15.07;;
15466;SDS011;7834;49.452;11.056;2024-01-15T06:53:39;24.40;;;14.43;;
15466;SDS011;7834;49.452;11.056;2024-01-15T06:56:05;27.10;;;15.02;;
15466;SDS011;7834;49.452;11.056;2024-01-15T06:58:30;27.23;;;14.30;;
15466;SDS011;7834;49.452;11.056;2024-01-15T07:00:56;25.90;;;14.23;;
15466;SDS011;7834;49.452;11.056;2024-01-15T07:03:22;24.08;;;13.75;;
15466;SDS011;7834;49.452;11.056;2024-01-15T07:05:47;24.42;;;13.88;;
15466;SDS011;7834;49.452;11.056;2024-01-15T07:08:13;24.83;;;13.97;;
15466;SDS011;7834;49.452;11.056;2024-01-15T07:10:38;22.35;;;13.35;;
15466;SDS011;7834;49.452;11.056;2024-01-15T07:13:04;24.20;;;14.10;;
15466;SDS011;7834;49.452;11.056;2024-01-15T07:15:30;24.17;;;13.10;;
15466;SDS011;7834;49.452;11.056;2024-01-15T07:17:56;26.60;;;14.25;;
15466;SDS011;7834;49.452;11.056;2024-01-15T07:20:22;24.87;;;14.23;;
15466;SDS011;7834;49.452;11.056;2024-01-15T07:22:47;30.52;;;15.43;;
15466;SDS011;7834;49.452;11.056;2024-01-15T07:25:13;28.77;;;15.53;;
15466;SDS011;7834;49.452;11.056;2024-01-15T07:27:38;28.00;;;15.63;;
15466;SDS011;7834;49.452;11.056;2024-01-15T07:30:04;26.42;;;15.43;;
15466;SDS011;7834;49.452;11.056;2024-01-15T07:32:31;27.50;;;15.90;;
15466;SDS011;7834;49.452;11.056;2024-01-15T07:34:57;27.92;;;14.93;;
15466;SDS011;7834;49.452;11.056;2024-01-15T07:37:24;25.53;;;14.93;;
15466;SDS011;7834;49.452;11.056;2024-01-15T07:39:50;23.33;;;14.63;;
15466;SDS011;7834;49.452;11.056;2024-01-15T07:42:15;25.85;;;14.88;;
15466;SDS011;7834;49.452;11.056;2024-01-15T07:44:41;26.70;;;15.00;;
15466;SDS011;7834;49.452;11.056;2024-01-15T07:47:06;28.13;;;15.83;;
15466;SDS011;7834;49.452;11.056;2024-01-15T07:49:34;25.77;;;15.18;;
15466;SDS011;7834;49.452;11.056;2024-01-15T07:52:00;27.67;;;14.93;;
15466;SDS011;7834;49.452;11.056;2024-01-15T07:54:25;26.55;;;15.13;;
15466;SDS011;7834;49.452;11.056;2024-01-15T07:56:58;24.33;;;14.68;;
15466;SDS011;7834;49.452;11.056;2024-01-15T07:59:24;26.55;;;14.85;;
15466;SDS011;7834;49.452;11.056;2024-01-15T08:01:50;25.58;;;15.02;;
15466;SDS011;7834;49.452;11.056;2024-01-15T08:04:16;24.08;;;14.30;;
15466;SDS011;7834;49.452;11.056;2024-01-15T08:06:42;24.58;;;14.98;;
15466;SDS011;7834;49.452;11.056;2024-01-15T08:12:04;23.13;;;14.48;;
15466;SDS011;7834;49.452;11.056;2024-01-15T08:14:31;24.70;;;14.43;;
15466;SDS011;7834;49.452;11.056;2024-01-15T08:16:57;27.10;;;14.68;;
15466;SDS011;7834;49.452;11.056;2024-01-15T08:19:22;27.50;;;16.00;;
15466;SDS011;7834;49.452;11.056;2024-01-15T08:21:48;23.03;;;14.27;;
15466;SDS011;7834;49.452;11.056;2024-01-15T08:24:14;21.63;;;13.23;;
15466;SDS011;7834;49.452;11.056;2024-01-15T08:26:40;21.23;;;12.93;;
15466;SDS011;7834;49.452;11.056;2024-01-15T08:29:05;21.02;;;13.15;;
15466;SDS011;7834;49.452;11.056;2024-01-15T08:31:31;21.93;;;13.27;;
15466;SDS011;7834;49.452;11.056;2024-01-15T08:33:56;21.67;;;13.20;;
15466;SDS011;7834;49.452;11.056;2024-01-15T08:36:22;21.30;;;12.70;;
15466;SDS011;7834;49.452;11.056;2024-01-15T08:38:49;20.85;;;12.77;;
15466;SDS011;7834;49.452;11.056;2024-01-15T08:41:14;24.77;;;13.37;;
15466;SDS011;7834;49.452;11.056;2024-01-15T08:43:40;20.87;;;13.10;;
15466;SDS011;7834;49.452;11.056;2024-01-15T08:46:05;23.13;;;12.70;;
15466;SDS011;7834;49.452;11.056;2024-01-15T08:48:31;20.63;;;12.83;;
15466;SDS011;7834;49.452;11.056;2024-01-15T08:50:57;20.15;;;12.85;;
15466;SDS011;7834;49.452;11.056;2024-01-15T08:53:22;20.67;;;13.03;;
15466;SDS011;7834;49.452;11.056;2024-01-15T08:55:48;23.33;;;13.63;;
15466;SDS011;7834;49.452;11.056;2024-01-15T08:58:14;23.13;;;13.30;;
15466;SDS011;7834;49.452;11.056;2024-01-15T09:00:40;20.00;;;12.63;;
15466;SDS011;7834;49.452;11.056;2024-01-15T09:03:05;18.20;;;11.95;;
15466;SDS011;7834;49.452;11.056;2024-01-15T09:05:31;19.90;;;11.75;;
15466;SDS011;7834;49.452;11.056;2024-01-15T09:07:57;17.73;;;11.77;;
15466;SDS011;7834;49.452;11.056;2024-01-15T09:10:22;19.25;;;11.75;;
15466;SDS011;7834;49.452;11.056;2024-01-15T09:12:48;19.95;;;12.75;;
15466;SDS011;7834;49.452;11.056;2024-01-15T09:15:17;21.20;;;12.80;;
15466;SDS011;7834;49.452;11.056;2024-01-15T09:17:43;20.23;;;12.53;;
15466;SDS011;7834;49.452;11.056;2024-01-15T09:20:08;21.50;;;12.88;;
15466;SDS011;7834;49.452;11.056;2024-01-15T09:22:35;20.52;;;12.80;;
15466;SDS011;7834;49.452;11.056;2024-01-15T09:25:01;18.80;;;12.60;;
15466;SDS011;7834;49.452;11.056;2024-01-15T09:27:26;22.27;;;12.70;;
15466;SDS011;7834;49.452;11.056;2024-01-15T09:29:52;18.75;;;11.95;;
15466;SDS011;7834;49.452;11.056;2024-01-15T09:32:18;20.05;;;12.05;;
15466;SDS011;7834;49.452;11.056;2024-01-15T09:34:43;21.23;;;12.47;;
15466;SDS011;7834;49.452;11.056;2024-01-15T09:37:09;20.13;;;12.27;;
15466;SDS011;7834;49.452;11.056;2024-01-15T09:39:34;19.13;;;12.47;;
15466;SDS011;7834;49.452;11.056;2024-01-15T09:42:00;17.93;;;11.37;;
15466;SDS011;7834;49.452;11.056;2024-01-15T09:44:26;20.02;;;12.40;;
15466;SDS011;7834;49.452;11.056;2024-01-15T09:46:52;17.92;;;11.15;;
15466;SDS011;7834;49.452;11.056;2024-01-15T09:49:18;18.48;;;11.57;;
15466;SDS011;7834;49.452;11.056;2024-01-15T09:51:44;16.40;;;11.07;;
15466;SDS011;7834;49.452;11.056;2024-01-15T09:54:09;16.30;;;10.55;;
15466;SDS011;7834;49.452;11.056;2024-01-15T09:56:35;16.97;;;10.67;;
15466;SDS011;7834;49.452;11.056;2024-01-15T09:59:01;17.83;;;10.65;;
15466;SDS011;7834;49.452;11.056;2024-01-15T10:01:27;19.05;;;11.82;;
15466;SDS011;7834;49.452;11.056;2024-01-15T10:03:54;17.65;;;11.23;;
15466;SDS011;7834;49.452;11.056;2024-01-15T10:06:19;20.20;;;11.85;;
15466;SDS011;7834;49.452;11.056;2024-01-15T10:08:47;19.10;;;11.75;;
15466;SDS011;7834;49.452;11.056;2024-01-15T10:11:13;19.40;;;10.82;;
15466;SDS011;7834;49.452;11.056;2024-01-15T10:13:39;16.10;;;11.10;;
15466;SDS011;7834;49.452;11.056;2024-01-15T10:16:04;16.30;;;11.00;;
15466;SDS011;7834;49.452;11.056;2024-01-15T10:18:30;17.93;;;10.90;;
15466;SDS011;7834;49.452;11.056;2024-01-15T10:20:56;17.43;;;11.43;;
15466;SDS011;7834;49.452;11.056;2024-01-15T10:23:23;17.35;;;11.55;;
15466;SDS011;7834;49.452;11.056;2024-01-15T10:25:48;15.85;;;11.02;;
15466;SDS011;7834;49.452;11.056;2024-01-15T10:28:14;19.00;;;11.43;;
15466;SDS011;7834;49.452;11.056;2024-01-15T10:30:40;18.63;;;11.60;;
15466;SDS011;7834;49.452;11.056;2024-01-15T10:33:05;17.20;;;11.10;;
15466;SDS011;7834;49.452;11.056;2024-01-15T10:35:32;17.80;;;10.77;;
15466;SDS011;7834;49.452;11.056;2024-01-15T10:37:58;17.70;;;10.75;;
15466;SDS011;7834;49.452;11.056;2024-01-15T10:40:24;15.82;;;10.70;;
15466;SDS011;7834;49.452;11.056;2024-01-15T10:42:50;15.77;;;10.80;;
15466;SDS011;7834;49.452;11.056;2024-01-15T10:45:16;15.20;;;10.53;;
15466;SDS011;7834;49.452;11.056;2024-01-15T10:47:42;14.83;;;10.23;;
15466;SDS011;7834;49.452;11.056;2024-01-15T10:50:08;15.27;;;10.73;;
15466;SDS011;7834;49.452;11.056;2024-01-15T10:52:35;14.73;;;10.20;;
15466;SDS011;7834;49.452;11.056;2024-01-15T10:55:00;18.05;;;10.88;;
15466;SDS011;7834;49.452;11.056;2024-01-15T10:57:27;16.93;;;10.47;;
15466;SDS011;7834;49.452;11.056;2024-01-15T10:59:53;18.00;;;11.10;;
15466;SDS011;7834;49.452;11.056;2024-01-15T11:02:19;17.43;;;10.70;;
15466;SDS011;7834;49.452;11.056;2024-01-15T11:04:44;16.10;;;10.50;;
15466;SDS011;7834;49.452;11.056;2024-01-15T11:07:10;17.43;;;10.97;;
15466;SDS011;7834;49.452;11.056;2024-01-15T11:09:37;15.85;;;10.27;;
15466;SDS011;7834;49.452;11.056;2024-01-15T11:12:15;16.17;;;10.73;;
15466;SDS011;7834;49.452;11.056;2024-01-15T11:14:46;15.20;;;10.27;;
15466;SDS011;7834;49.452;11.056;2024-01-15T11:17:12;14.83;;;10.30;;
15466;SDS011;7834;49.452;11.056;2024-01-15T11:19:42;17.13;;;11.18;;
15466;SDS011;7834;49.452;11.056;2024-01-15T11:22:08;14.90;;;10.43;;
15466;SDS011;7834;49.452;11.056;2024-01-15T11:24:34;17.33;;;10.73;;
15466;SDS011;7834;49.452;11.056;2024-01-15T11:27:01;15.75;;;10.52;;
15466;SDS011;7834;49.452;11.056;2024-01-15T11:31:57;16.00;;;11.00;;
15466;SDS011;7834;49.452;11.056;2024-01-15T11:34:49;16.45;;;11.13;;
15466;SDS011;7834;49.452;11.056;2024-01-15T11:37:08;16.63;;;11.25;;
15466;SDS011;7834;49.452;11.056;2024-01-15T11:39:41;15.00;;;11.13;;
15466;SDS011;7834;49.452;11.056;2024-01-15T11:42:09;16.87;;;10.97;;
15466;SDS011;7834;49.452;11.056;2024-01-15T11:44:34;17.35;;;11.43;;
15466;SDS011;7834;49.452;11.056;2024-01-15T11:47:01;18.48;;;12.77;;
15466;SDS011;7834;49.452;11.056;2024-01-15T11:49:36;15.70;;;10.93;;
15466;SDS011;7834;49.452;11.056;2024-01-15T11:52:02;15.70;;;10.45;;
15466;SDS011;7834;49.452;11.056;2024-01-15T11:54:30;16.37;;;10.93;;
15466;SDS011;7834;49.452;11.056;2024-01-15T11:56:57;16.50;;;10.65;;
15466;SDS011;7834;49.452;11.056;2024-01-15T11:59:24;17.92;;;10.57;;
15466;SDS011;7834;49.452;11.056;2024-01-15T12:01:50;15.30;;;10.60;;
15466;SDS011;7834;49.452;11.056;2024-01-15T12:04:15;15.75;;;11.02;;
15466;SDS011;7834;49.452;11.056;2024-01-15T12:06:42;15.65;;;10.60;;
15466;SDS011;7834;49.452;11.056;2024-01-15T12:09:08;14.38;;;10.07;;
15466;SDS011;7834;49.452;11.056;2024-01-15T12:11:34;13.87;;;9.87;;
15466;SDS011;7834;49.452;11.056;2024-01-15T12:14:01;15.48;;;10.50;;
15466;SDS011;7834;49.452;11.056;2024-01-15T12:16:27;16.52;;;10.15;;
15466;SDS011;7834;49.452;11.056;2024-01-15T12:18:53;13.75;;;10.07;;
15466;SDS011;7834;49.452;11.056;2024-01-15T12:21:18;15.37;;;10.50;;
15466;SDS011;7834;49.452;11.056;2024-01-15T12:23:48;15.70;;;10.97;;
15466;SDS011;7834;49.452;11.056;2024-01-15T12:26:14;23.88;;;15.10;;
15466;SDS011;7834;49.452;11.056;2024-01-15T12:28:40;16.02;;;10.38;;
15466;SDS011;7834;49.452;11.056;2024-01-15T12:31:05;15.50;;;10.70;;
15466;SDS011;7834;49.452;11.056;2024-01-15T12:33:31;14.38;;;10.30;;
15466;SDS011;7834;49.452;11.056;2024-01-15T12:35:56;14.10;;;9.63;;
15466;SDS011;7834;49.452;11.056;2024-01-15T12:38:22;14.23;;;9.87;;
15466;SDS011;7834;49.452;11.056;2024-01-15T12:40:48;15.85;;;10.57;;
15466;SDS011;7834;49.452;11.056;2024-01-15T12:43:13;14.00;;;9.73;;
15466;SDS011;7834;49.452;11.056;2024-01-15T12:45:39;13.50;;;9.77;;
15466;SDS011;7834;49.452;11.056;2024-01-15T12:48:05;12.57;;;9.32;;
15466;SDS011;7834;49.452;11.056;2024-01-15T12:50:33;13.27;;;9.63;;
15466;SDS011;7834;49.452;11.056;2024-01-15T12:52:58;13.60;;;9.75;;
15466;SDS011;7834;49.452;11.056;2024-01-15T12:55:25;13.35;;;9.57;;
15466;SDS011;7834;49.452;11.056;2024-01-15T12:57:50;14.40;;;9.55;;
15466;SDS011;7834;49.452;11.056;2024-01-15T13:00:20;12.10;;;9.23;;
15466;SDS011;7834;49.452;11.056;2024-01-15T13:02:45;14.27;;;9.93;;
15466;SDS011;7834;49.452;11.056;2024-01-15T13:05:11;13.67;;;9.10;;
15466;SDS011;7834;49.452;11.056;2024-01-15T13:07:37;12.65;;;9.60;;
15466;SDS011;7834;49.452;11.056;2024-01-15T13:10:03;13.05;;;9.80;;
15466;SDS011;7834;49.452;11.056;2024-01-15T13:12:28;13.35;;;9.30;;
15466;SDS011;7834;49.452;11.056;2024-01-15T13:14:54;14.52;;;10.13;;
15466;SDS011;7834;49.452;11.056;2024-01-15T13:17:19;13.10;;;9.20;;
15466;SDS011;7834;49.452;11.056;2024-01-15T13:19:46;14.73;;;9.45;;
15466;SDS011;7834;49.452;11.056;2024-01-15T13:22:12;13.18;;;8.93;;
15466;SDS011;7834;49.452;11.056;2024-01-15T13:24:39;12.70;;;8.93;;
15466;SDS011;7834;49.452;11.056;2024-01-15T13:27:05;25.53;;;14.97;;
15466;SDS011;7834;49.452;11.056;2024-01-15T13:29:31;14.23;;;9.00;;
15466;SDS011;7834;49.452;11.056;2024-01-15T13:31:57;13.53;;;9.47;;
15466;SDS011;7834;49.452;11.056;2024-01-15T13:34:22;13.45;;;9.98;;
15466;SDS011;7834;49.452;11.056;2024-01-15T13:36:48;14.60;;;9.18;;
15466;SDS011;7834;49.452;11.056;2024-01-15T13:39:15;13.27;;;9.77;;
15466;SDS011;7834;49.452;11.056;2024-01-15T13:41:45;14.27;;;10.35;;
15466;SDS011;7834;49.452;11.056;2024-01-15T13:44:11;14.30;;;9.35;;
15466;SDS011;7834;49.452;11.056;2024-01-15T13:46:36;12.63;;;9.13;;
15466;SDS011;7834;49.452;11.056;2024-01-15T13:49:03;14.07;;;8.95;;
15466;SDS011;7834;49.452;11.056;2024-01-15T13:51:31;11.35;;;8.75;;
15466;SDS011;7834;49.452;11.056;2024-01-15T13:53:57;12.32;;;8.98;;
15466;SDS011;7834;49.452;11.056;2024-01-15T13:56:23;13.00;;;8.60;;
15466;SDS011;7834;49.452;11.056;2024-01-15T13:58:48;12.70;;;8.87;;
15466;SDS011;7834;49.452;11.056;2024-01-15T14:01:15;11.82;;;8.30;;
15466;SDS011;7834;49.452;11.056;2024-01-15T14:03:41;12.55;;;8.80;;
15466;SDS011;7834;49.452;11.056;2024-01-15T14:06:06;12.10;;;8.67;;
15466;SDS011;7834;49.452;11.056;2024-01-15T14:08:37;14.15;;;9.30;;
15466;SDS011;7834;49.452;11.056;2024-01-15T14:11:06;13.48;;;9.00;;
15466;SDS011;7834;49.452;11.056;2024-01-15T14:13:32;13.45;;;9.52;;
15466;SDS011;7834;49.452;11.056;2024-01-15T14:15:58;11.70;;;8.50;;
15466;SDS011;7834;49.452;11.056;2024-01-15T14:18:23;13.17;;;8.93;;
15466;SDS011;7834;49.452;11.056;2024-01-15T14:20:49;12.27;;;8.80;;
15466;SDS011;7834;49.452;11.056;2024-01-15T14:23:14;11.73;;;9.30;;